Time;durP1;ratioP1;P1;durP2;ratioP2;P2;SDS_P1;SDS_P2;PMS_P1;PMS_P2;Temp;Humidity;BMP_temperature;BMP_pressure;BME280_temperature;BME280_humidity;BME280_pressure;Samples;Min_cycle;Max_cycle;Signal;HPM_P1;HPM_P2
2021/04/24 00:00:13;;;;;;;10.15;4.30;;;;;;;;;;5002734;28;20116;-78
2021/04/24 00:02:42;;;;;;;10.80;4.10;;;;;;;;;;5000818;28;20044;-78
2021/04/24 00:05:12;;;;;;;9.60;3.83;;;;;;;;;;4989307;28;20065;-78
2021/04/24 00:07:39;;;;;;;8.52;3.20;;;;;;;;;;5003304;28;20033;-78
2021/04/24 00:10:07;;;;;;;9.10;3.45;;;;;;;;;;5006985;28;20033;-78
2021/04/24 00:12:34;;;;;;;10.10;3.60;;;;;;;;;;5012634;28;20021;-78
2021/04/24 00:15:02;;;;;;;9.48;4.05;;;;;;;;;;5002828;28;20014;-78
2021/04/24 00:17:29;;;;;;;9.23;3.60;;;;;;;;;;5004401;28;20056;-78
2021/04/24 00:19:56;;;;;;;8.52;3.85;;;;;;;;;;5010646;28;20036;-78
2021/04/24 00:22:23;;;;;;;9.48;4.28;;;;;;;;;;5002304;28;20612;-78
2021/04/24 00:24:51;;;;;;;8.20;3.28;;;;;;;;;;5008358;28;20529;-77
2021/04/24 00:27:19;;;;;;;8.05;3.00;;;;;;;;;;4999625;28;20069;-78
2021/04/24 00:29:46;;;;;;;8.18;3.10;;;;;;;;;;4987206;28;20033;-78
2021/04/24 00:32:13;;;;;;;7.32;2.80;;;;;;;;;;5004950;28;20050;-78
2021/04/24 00:34:40;;;;;;;;;;;;;;;;;;4997621;28;20032;-78
2021/04/24 00:37:09;;;;;;;9.73;4.43;;;;;;;;;;5005985;28;20432;-78
2021/04/24 00:39:37;;;;;;;9.77;3.28;;;;;;;;;;5000005;28;20026;-77
2021/04/24 00:42:07;;;;;;;7.90;2.70;;;;;;;;;;5005566;28;20554;-77
2021/04/24 00:44:34;;;;;;;9.45;3.58;;;;;;;;;;5013315;28;20029;-77
2021/04/24 00:47:02;;;;;;;6.45;2.70;;;;;;;;;;4998636;28;20049;-80
2021/04/24 00:49:28;;;;;;;9.85;3.13;;;;;;;;;;4987547;28;20029;-79
2021/04/24 00:51:55;;;;;;;8.85;3.50;;;;;;;;;;5010038;28;20055;-80
2021/04/24 00:54:22;;;;;;;8.40;3.15;;;;;;;;;;5003948;28;20143;-81
2021/04/24 00:56:56;;;;;;;8.68;3.53;;;;;;;;;;5003254;28;20034;-80
2021/04/24 00:59:23;;;;;;;7.93;2.95;;;;;;;;;;5006580;28;20709;-82
2021/04/24 01:01:50;;;;;;;8.68;3.22;;;;;;;;;;5011306;28;20465;-81
2021/04/24 01:04:17;;;;;;;9.60;3.60;;;;;;;;;;5006276;28;20080;-81
2021/04/24 01:06:43;;;;;;;10.90;4.43;;;;;;;;;;4992985;28;20057;-81
2021/04/24 01:09:10;;;;;;;;;;;;;;;;;;5006804;28;20040;-81
2021/04/24 01:11:38;;;;;;;;;;;;;;;;;;4997410;28;20783;-81
2021/04/24 01:14:08;;;;;;;10.55;4.07;;;;;;;;;;5010088;28;20361;-81
2021/04/24 01:16:35;;;;;;;9.07;3.92;;;;;;;;;;5003291;28;20040;-82
2021/04/24 01:19:03;;;;;;;8.25;3.30;;;;;;;;;;5010118;28;20051;-80
2021/04/24 01:21:33;;;;;;;9.18;2.83;;;;;;;;;;4988265;28;20072;-80
2021/04/24 01:24:02;;;;;;;8.90;3.75;;;;;;;;;;5007789;28;20018;-81
2021/04/24 01:26:32;;;;;;;11.48;3.50;;;;;;;;;;5002709;28;20033;-79
2021/04/24 01:29:01;;;;;;;11.25;3.40;;;;;;;;;;5005169;28;20126;-78
2021/04/24 01:31:28;;;;;;;9.40;3.47;;;;;;;;;;4992897;28;20714;-78
2021/04/24 01:33:55;;;;;;;11.75;3.88;;;;;;;;;;5005151;28;20033;-78
2021/04/24 01:36:22;;;;;;;9.75;3.67;;;;;;;;;;4987982;28;20500;-78
2021/04/24 01:38:48;;;;;;;8.50;3.78;;;;;;;;;;5000623;28;20053;-79
2021/04/24 01:41:17;;;;;;;;;;;;;;;;;;5004766;28;20100;-78
2021/04/24 01:43:56;;;;;;;8.07;3.35;;;;;;;;;;5011237;28;20327;-78
2021/04/24 01:46:25;;;;;;;10.75;3.63;;;;;;;;;;4981190;28;20433;-79
2021/04/24 01:48:54;;;;;;;9.40;3.75;;;;;;;;;;5001816;28;20066;-79
2021/04/24 01:51:22;;;;;;;8.80;3.75;;;;;;;;;;4968742;28;20421;-78
2021/04/24 01:53:49;;;;;;;9.38;3.63;;;;;;;;;;5009949;28;20025;-76
2021/04/24 01:56:16;;;;;;;7.80;3.45;;;;;;;;;;4998848;28;20026;-78
2021/04/24 01:58:44;;;;;;;9.60;3.15;;;;;;;;;;5009844;28;20029;-78
2021/04/24 02:01:13;;;;;;;9.63;3.40;;;;;;;;;;5008902;28;20025;-77
2021/04/24 02:03:42;;;;;;;8.98;3.40;;;;;;;;;;5000781;28;20041;-78
2021/04/24 02:06:09;;;;;;;7.72;3.15;;;;;;;;;;5008536;28;20619;-79
2021/04/24 02:08:41;;;;;;;7.50;3.20;;;;;;;;;;5003859;28;20028;-78
2021/04/24 02:11:11;;;;;;;7.32;3.13;;;;;;;;;;5010175;28;20034;-78
2021/04/24 02:13:41;;;;;;;8.65;3.10;;;;;;;;;;5006244;28;21056;-78
2021/04/24 02:16:10;;;;;;;8.05;2.92;;;;;;;;;;4984225;28;20087;-79
2021/04/24 02:18:40;;;;;;;9.48;3.00;;;;;;;;;;4988732;28;20977;-78
2021/04/24 02:21:06;;;;;;;7.90;2.80;;;;;;;;;;5014522;28;20025;-78
2021/04/24 02:23:38;;;;;;;6.78;2.65;;;;;;;;;;4974928;28;20033;-77
2021/04/24 02:26:05;;;;;;;8.18;2.88;;;;;;;;;;5010588;28;20119;-78
2021/04/24 02:28:32;;;;;;;8.30;3.00;;;;;;;;;;5000987;28;20040;-78
2021/04/24 02:31:00;;;;;;;7.68;2.90;;;;;;;;;;5005675;28;20030;-78
2021/04/24 02:33:29;;;;;;;10.77;3.35;;;;;;;;;;5001238;28;20026;-78
2021/04/24 02:35:59;;;;;;;8.50;3.15;;;;;;;;;;5011929;28;20559;-78
2021/04/24 02:38:33;;;;;;;8.88;3.22;;;;;;;;;;4988096;28;20088;-77
2021/04/24 02:41:06;;;;;;;8.98;2.83;;;;;;;;;;5006127;28;20092;-78
2021/04/24 02:43:34;;;;;;;8.88;3.28;;;;;;;;;;5004566;28;20040;-78
2021/04/24 02:46:01;;;;;;;8.30;2.65;;;;;;;;;;5006293;28;20039;-78
2021/04/24 02:48:29;;;;;;;8.02;3.28;;;;;;;;;;5003608;28;20037;-78
2021/04/24 02:51:01;;;;;;;8.75;2.88;;;;;;;;;;5010986;28;20026;-78
2021/04/24 02:53:28;;;;;;;7.85;2.58;;;;;;;;;;5000065;28;20048;-78
2021/04/24 02:55:55;;;;;;;8.50;2.50;;;;;;;;;;5014117;28;20044;-78
2021/04/24 02:58:24;;;;;;;9.27;3.10;;;;;;;;;;5002419;28;20072;-78
2021/04/24 03:00:51;;;;;;;8.77;3.10;;;;;;;;;;4996108;28;20034;-80
2021/04/24 03:03:20;;;;;;;10.02;3.00;;;;;;;;;;5007458;28;20013;-78
2021/04/24 03:05:48;;;;;;;6.63;2.45;;;;;;;;;;5003250;28;20154;-79
2021/04/24 03:08:15;;;;;;;6.72;2.40;;;;;;;;;;5012907;28;20106;-81
2021/04/24 03:10:44;;;;;;;8.43;2.55;;;;;;;;;;5012059;28;20052;-80
2021/04/24 03:13:14;;;;;;;8.52;2.88;;;;;;;;;;5011239;28;20108;-80
2021/04/24 03:15:42;;;;;;;6.97;2.95;;;;;;;;;;4990698;28;20030;-80
2021/04/24 03:18:10;;;;;;;7.28;2.78;;;;;;;;;;5011281;28;20057;-79
2021/04/24 03:20:40;;;;;;;8.35;3.03;;;;;;;;;;4989001;28;20042;-80
2021/04/24 03:23:09;;;;;;;7.38;2.80;;;;;;;;;;5006376;28;20324;-80
2021/04/24 03:25:36;;;;;;;7.03;2.83;;;;;;;;;;5006575;28;20053;-80
2021/04/24 03:28:05;;;;;;;9.75;3.22;;;;;;;;;;5004401;28;20029;-81
2021/04/24 03:30:34;;;;;;;8.48;2.90;;;;;;;;;;5005237;28;20058;-82
2021/04/24 03:33:02;;;;;;;5.50;2.20;;;;;;;;;;5012496;28;20505;-81
2021/04/24 03:35:30;;;;;;;7.22;2.60;;;;;;;;;;4997798;28;20025;-82
2021/04/24 03:37:57;;;;;;;6.60;2.20;;;;;;;;;;4997210;28;20029;-81
2021/04/24 03:40:24;;;;;;;6.93;2.60;;;;;;;;;;5003323;28;20090;-82
2021/04/24 03:42:54;;;;;;;8.00;2.67;;;;;;;;;;5006587;28;20108;-80
2021/04/24 03:45:22;;;;;;;8.20;2.53;;;;;;;;;;5005778;28;20047;-81
2021/04/24 03:47:52;;;;;;;6.85;2.65;;;;;;;;;;4999631;28;20060;-82
2021/04/24 03:50:30;;;;;;;6.47;2.40;;;;;;;;;;5009664;28;20037;-79
2021/04/24 03:52:57;;;;;;;7.90;2.70;;;;;;;;;;5004534;28;20033;-78
2021/04/24 03:55:26;;;;;;;8.40;2.88;;;;;;;;;;4999678;28;20029;-78
2021/04/24 03:57:56;;;;;;;8.05;3.00;;;;;;;;;;5009970;28;20030;-78
2021/04/24 04:00:27;;;;;;;9.10;2.67;;;;;;;;;;4987400;28;20026;-78
2021/04/24 04:02:57;;;;;;;8.50;3.47;;;;;;;;;;5016661;28;20572;-78
2021/04/24 04:05:27;;;;;;;7.70;2.80;;;;;;;;;;5003913;28;20045;-77
2021/04/24 04:07:59;;;;;;;6.82;2.45;;;;;;;;;;5011310;28;20014;-78
2021/04/24 04:10:25;;;;;;;7.13;2.35;;;;;;;;;;4982969;28;20057;-77
2021/04/24 04:12:53;;;;;;;7.15;2.60;;;;;;;;;;4991592;28;20056;-78
2021/04/24 04:15:20;;;;;;;8.98;2.70;;;;;;;;;;4990267;28;20125;-79
2021/04/24 04:18:05;;;;;;;7.38;2.30;;;;;;;;;;4994528;28;20125;-77
2021/04/24 04:20:37;;;;;;;6.63;2.35;;;;;;;;;;4988279;28;20236;-79
2021/04/24 04:23:05;;;;;;;6.10;2.15;;;;;;;;;;4990794;28;20096;-78
2021/04/24 04:25:32;;;;;;;6.40;2.50;;;;;;;;;;4978662;28;20030;-77
2021/04/24 04:28:01;;;;;;;6.50;2.33;;;;;;;;;;4989503;28;20076;-78
2021/04/24 04:30:31;;;;;;;5.85;1.92;;;;;;;;;;4983577;28;20184;-78
2021/04/24 04:32:59;;;;;;;6.10;2.13;;;;;;;;;;4973714;28;20137;-78
2021/04/24 04:35:27;;;;;;;7.47;2.30;;;;;;;;;;4953486;28;20029;-78
2021/04/24 04:37:55;;;;;;;8.35;2.20;;;;;;;;;;4980654;28;20026;-78
2021/04/24 04:40:22;;;;;;;6.38;2.45;;;;;;;;;;4985547;28;20423;-77
2021/04/24 04:42:50;;;;;;;6.85;2.17;;;;;;;;;;4965981;28;20042;-78
2021/04/24 04:45:19;;;;;;;7.63;2.35;;;;;;;;;;4976512;28;20053;-77
2021/04/24 04:47:48;;;;;;;8.52;2.40;;;;;;;;;;4968825;28;20083;-77
2021/04/24 04:50:17;;;;;;;7.93;2.38;;;;;;;;;;4970510;28;20050;-77
2021/04/24 04:52:46;;;;;;;6.65;2.35;;;;;;;;;;4959171;28;20108;-77
2021/04/24 04:55:14;;;;;;;5.97;2.15;;;;;;;;;;4984085;28;20053;-79
2021/04/24 04:57:42;;;;;;;8.25;2.38;;;;;;;;;;4962143;28;20141;-78
2021/04/24 05:00:29;;;;;;;6.25;2.30;;;;;;;;;;4953234;28;20127;-78
2021/04/24 05:02:56;;;;;;;7.05;2.35;;;;;;;;;;4980447;28;20037;-79
2021/04/24 05:05:24;;;;;;;9.68;2.30;;;;;;;;;;4961267;28;20068;-78
2021/04/24 05:07:52;;;;;;;8.60;2.03;;;;;;;;;;4988616;28;20037;-78
2021/04/24 05:10:25;;;;;;;6.78;2.45;;;;;;;;;;5003850;28;20041;-80
2021/04/24 05:12:53;;;;;;;6.65;2.28;;;;;;;;;;5002008;28;22172;-80
2021/04/24 05:15:23;;;;;;;7.30;2.67;;;;;;;;;;5002203;28;20036;-80
2021/04/24 05:17:51;;;;;;;6.55;2.47;;;;;;;;;;5000049;28;20596;-80
2021/04/24 05:20:19;;;;;;;8.80;2.50;;;;;;;;;;5000816;28;20033;-79
2021/04/24 05:22:48;;;;;;;10.77;2.75;;;;;;;;;;4985534;28;20754;-79
2021/04/24 05:25:20;;;;;;;6.75;2.45;;;;;;;;;;5005450;28;20029;-79
2021/04/24 05:27:49;;;;;;;6.93;2.47;;;;;;;;;;5004083;28;20094;-81
2021/04/24 05:30:20;;;;;;;6.88;2.40;;;;;;;;;;5003208;28;20030;-80
2021/04/24 05:32:47;;;;;;;7.32;2.65;;;;;;;;;;5006882;28;20106;-80
2021/04/24 05:35:17;;;;;;;7.70;2.05;;;;;;;;;;5006768;28;20045;-80
2021/04/24 05:37:45;;;;;;;7.63;2.80;;;;;;;;;;4980815;28;20032;-76
2021/04/24 05:40:15;;;;;;;8.32;2.78;;;;;;;;;;5008716;28;20497;-78
2021/04/24 05:42:42;;;;;;;7.90;2.60;;;;;;;;;;4960691;28;20042;-78
2021/04/24 05:45:12;;;;;;;7.88;2.75;;;;;;;;;;4930813;28;20434;-77
2021/04/24 05:47:48;;;;;;;8.05;2.83;;;;;;;;;;4944027;28;21263;-78
2021/04/24 05:50:20;;;;;;;10.63;3.53;;;;;;;;;;4944736;28;20031;-77
2021/04/24 05:52:48;;;;;;;7.75;3.20;;;;;;;;;;4962025;28;20485;-77
2021/04/24 05:55:17;;;;;;;9.00;3.10;;;;;;;;;;4948016;28;20074;-79
2021/04/24 05:57:47;;;;;;;10.75;3.45;;;;;;;;;;4962970;28;20145;-78
2021/04/24 06:00:16;;;;;;;12.07;3.55;;;;;;;;;;4963742;28;20042;-79
2021/04/24 06:02:44;;;;;;;8.98;3.40;;;;;;;;;;4906910;28;20043;-78
2021/04/24 06:05:14;;;;;;;8.55;3.20;;;;;;;;;;4907132;28;20095;-79
2021/04/24 06:07:40;;;;;;;8.30;3.30;;;;;;;;;;4912793;28;20046;-79
2021/04/24 06:10:07;;;;;;;;;;;;;;;;;;4923350;28;20501;-78
2021/04/24 06:12:36;;;;;;;10.73;3.88;;;;;;;;;;4929309;28;20001;-79
2021/04/24 06:15:09;;;;;;;9.50;3.78;;;;;;;;;;4923300;28;20043;-80
2021/04/24 06:17:38;;;;;;;10.98;4.07;;;;;;;;;;4921580;28;20165;-79
2021/04/24 06:20:08;;;;;;;10.20;3.97;;;;;;;;;;4909442;29;20094;-78
2021/04/24 06:22:37;;;;;;;8.98;4.10;;;;;;;;;;4920348;28;20059;-79
2021/04/24 06:25:10;;;;;;;10.45;4.25;;;;;;;;;;4912076;28;20054;-80
2021/04/24 06:27:38;;;;;;;10.27;3.83;;;;;;;;;;4905893;28;21697;-79
2021/04/24 06:30:08;;;;;;;8.75;3.75;;;;;;;;;;4909078;28;20050;-80
2021/04/24 06:32:36;;;;;;;11.02;4.10;;;;;;;;;;4908084;28;20154;-77
2021/04/24 06:35:03;;;;;;;10.13;3.88;;;;;;;;;;4910177;28;20042;-78
2021/04/24 06:37:31;;;;;;;8.93;3.50;;;;;;;;;;4918476;28;20031;-78
2021/04/24 06:39:58;;;;;;;8.95;3.88;;;;;;;;;;4916749;28;20546;-77
2021/04/24 06:42:27;;;;;;;9.25;3.97;;;;;;;;;;4963903;28;20847;-79
2021/04/24 06:44:54;;;;;;;9.40;4.00;;;;;;;;;;5003086;28;20040;-79
2021/04/24 06:47:21;;;;;;;9.60;3.72;;;;;;;;;;4999685;28;20041;-78
2021/04/24 06:49:50;;;;;;;8.82;3.60;;;;;;;;;;5003918;28;20625;-79
2021/04/24 06:52:19;;;;;;;7.78;3.25;;;;;;;;;;5003386;28;20029;-79
2021/04/24 06:54:46;;;;;;;8.95;3.83;;;;;;;;;;5005274;28;20095;-79
2021/04/24 06:57:13;;;;;;;7.82;3.47;;;;;;;;;;5010236;28;20468;-78
2021/04/24 06:59:43;;;;;;;7.35;3.33;;;;;;;;;;5000951;28;20033;-79
2021/04/24 07:02:13;;;;;;;9.13;3.33;;;;;;;;;;5010161;28;20021;-78
2021/04/24 07:04:42;;;;;;;9.13;3.50;;;;;;;;;;5002409;28;20030;-78
2021/04/24 07:07:09;;;;;;;7.25;2.90;;;;;;;;;;5004841;28;20038;-79
2021/04/24 07:09:38;;;;;;;8.45;3.40;;;;;;;;;;5003854;28;20598;-80
2021/04/24 07:12:06;;;;;;;14.50;7.30;;;;;;;;;;5004219;28;20029;-78
2021/04/24 07:14:53;;;;;;;22.42;15.32;;;;;;;;;;4947380;28;20055;-79
2021/04/24 07:17:21;;;;;;;17.15;11.00;;;;;;;;;;4919689;28;20819;-79
2021/04/24 07:19:49;;;;;;;21.20;14.77;;;;;;;;;;4926514;28;20031;-79
2021/04/24 07:22:22;;;;;;;11.57;6.32;;;;;;;;;;4925615;28;20070;-79
2021/04/24 07:24:50;;;;;;;11.32;5.90;;;;;;;;;;4910795;28;20550;-80
2021/04/24 07:27:19;;;;;;;9.88;3.95;;;;;;;;;;4907870;28;20051;-79
2021/04/24 07:29:46;;;;;;;9.48;3.72;;;;;;;;;;4927672;28;20046;-79
2021/04/24 07:32:15;;;;;;;8.70;3.95;;;;;;;;;;4927987;28;20047;-78
2021/04/24 07:34:43;;;;;;;11.05;3.78;;;;;;;;;;4925008;28;20062;-78
2021/04/24 07:37:12;;;;;;;7.03;2.67;;;;;;;;;;4923226;28;20058;-78
2021/04/24 07:39:38;;;;;;;8.18;3.10;;;;;;;;;;4908313;28;20074;-78
2021/04/24 07:42:05;;;;;;;9.23;3.35;;;;;;;;;;4923837;28;20035;-79
2021/04/24 07:44:37;;;;;;;7.70;3.47;;;;;;;;;;4920858;28;20098;-78
2021/04/24 07:47:08;;;;;;;8.05;3.67;;;;;;;;;;4925118;28;20036;-78
2021/04/24 07:49:36;;;;;;;9.85;3.65;;;;;;;;;;4924207;28;20059;-78
2021/04/24 07:52:09;;;;;;;9.48;3.50;;;;;;;;;;4951297;28;20034;-78
2021/04/24 07:54:46;;;;;;;7.90;2.90;;;;;;;;;;4958617;28;20085;-78
2021/04/24 07:57:16;;;;;;;7.75;3.03;;;;;;;;;;4960699;28;20092;-78
2021/04/24 07:59:46;;;;;;;7.45;2.70;;;;;;;;;;4963190;28;20072;-78
2021/04/24 08:02:16;;;;;;;7.60;2.50;;;;;;;;;;4997602;28;20613;-79
2021/04/24 08:04:44;;;;;;;9.25;3.00;;;;;;;;;;4998230;28;20663;-78
2021/04/24 08:07:12;;;;;;;8.55;2.80;;;;;;;;;;4985779;28;20041;-78
2021/04/24 08:09:42;;;;;;;9.40;2.63;;;;;;;;;;4996829;28;20551;-78
2021/04/24 08:12:10;;;;;;;7.72;2.80;;;;;;;;;;5005516;28;20073;-78
2021/04/24 08:14:41;;;;;;;8.27;2.42;;;;;;;;;;4991977;28;22010;-79
2021/04/24 08:17:13;;;;;;;7.22;2.67;;;;;;;;;;4985292;28;20221;-81
2021/04/24 08:19:43;;;;;;;7.18;2.58;;;;;;;;;;4994833;28;20847;-78
2021/04/24 08:22:10;;;;;;;7.25;2.63;;;;;;;;;;4984617;28;20055;-77
2021/04/24 08:24:37;;;;;;;7.45;2.45;;;;;;;;;;4998212;28;20164;-78
2021/04/24 08:27:16;;;;;;;7.35;2.80;;;;;;;;;;4980779;28;20624;-77
2021/04/24 08:29:45;;;;;;;9.52;3.60;;;;;;;;;;4989188;28;20094;-80
2021/04/24 08:32:13;;;;;;;8.32;3.13;;;;;;;;;;4999844;28;20033;-78
2021/04/24 08:34:41;;;;;;;10.05;2.90;;;;;;;;;;4989716;28;20078;-80
2021/04/24 08:37:10;;;;;;;9.50;3.22;;;;;;;;;;4991857;28;20481;-80
2021/04/24 08:39:37;;;;;;;8.95;3.55;;;;;;;;;;4996746;28;20085;-78
2021/04/24 08:42:10;;;;;;;9.52;2.95;;;;;;;;;;5005454;28;20025;-78
2021/04/24 08:44:40;;;;;;;8.43;2.88;;;;;;;;;;4977030;28;20332;-78
2021/04/24 08:47:10;;;;;;;11.55;3.28;;;;;;;;;;5002096;28;21001;-77
2021/04/24 08:49:42;;;;;;;10.80;3.60;;;;;;;;;;4992690;28;20038;-77
2021/04/24 08:52:12;;;;;;;13.23;3.47;;;;;;;;;;4986017;28;20040;-78
2021/04/24 08:54:41;;;;;;;9.15;4.13;;;;;;;;;;4996323;28;20460;-78
2021/04/24 08:57:11;;;;;;;6.82;2.63;;;;;;;;;;5000965;28;20045;-79
2021/04/24 08:59:39;;;;;;;8.30;3.00;;;;;;;;;;4984472;28;20026;-79
2021/04/24 09:02:06;;;;;;;6.82;2.70;;;;;;;;;;4997216;28;20030;-79
2021/04/24 09:04:36;;;;;;;6.55;2.45;;;;;;;;;;4968802;28;20075;-79
2021/04/24 09:07:03;;;;;;;9.00;3.05;;;;;;;;;;4982773;28;20045;-78
2021/04/24 09:09:31;;;;;;;9.65;3.40;;;;;;;;;;5017352;28;20029;-82
2021/04/24 09:12:01;;;;;;;7.93;2.50;;;;;;;;;;5019072;28;20120;-81
2021/04/24 09:14:29;;;;;;;7.60;2.40;;;;;;;;;;5007631;28;20025;-80
2021/04/24 09:16:55;;;;;;;8.15;2.63;;;;;;;;;;5008272;28;20097;-80
2021/04/24 09:19:30;;;;;;;6.93;2.60;;;;;;;;;;5002646;28;20030;-80
2021/04/24 09:22:18;;;;;;;8.43;2.60;;;;;;;;;;5013442;28;20059;-80
2021/04/24 09:24:52;;;;;;;10.43;3.20;;;;;;;;;;4999260;28;20028;-82
2021/04/24 09:27:19;;;;;;;8.15;3.05;;;;;;;;;;5012982;28;20045;-80
2021/04/24 09:29:46;;;;;;;12.15;4.00;;;;;;;;;;5010640;28;20124;-82
2021/04/24 09:32:22;;;;;;;11.30;3.83;;;;;;;;;;5012970;28;20040;-81
2021/04/24 09:34:50;;;;;;;10.38;3.97;;;;;;;;;;4999802;28;20037;-80
2021/04/24 09:37:20;;;;;;;7.95;3.17;;;;;;;;;;4993678;28;20040;-81
2021/04/24 09:39:49;;;;;;;7.75;2.60;;;;;;;;;;5006772;28;20080;-81
2021/04/24 09:42:39;;;;;;;9.63;3.22;;;;;;;;;;5012029;28;20029;-82
2021/04/24 09:45:19;;;;;;;6.88;2.35;;;;;;;;;;5024419;28;20052;-81
2021/04/24 09:47:47;;;;;;;7.10;2.60;;;;;;;;;;5021540;28;20085;-81
2021/04/24 09:50:16;;;;;;;8.75;2.60;;;;;;;;;;5001727;28;20404;-83
2021/04/24 09:52:44;;;;;;;7.95;2.60;;;;;;;;;;5019402;28;20045;-82
2021/04/24 09:55:32;;;;;;;7.25;2.42;;;;;;;;;;5024244;28;20029;-81
2021/04/24 09:58:00;;;;;;;9.52;3.30;;;;;;;;;;5010516;28;20048;-82
2021/04/24 10:00:34;;;;;;;11.40;4.55;;;;;;;;;;5024775;28;20056;-81
2021/04/24 10:03:02;;;;;;;9.10;2.75;;;;;;;;;;5026357;28;20040;-81
2021/04/24 10:05:28;;;;;;;8.55;2.75;;;;;;;;;;5017966;28;20025;-78
2021/04/24 10:07:59;;;;;;;7.93;2.85;;;;;;;;;;5002759;28;20052;-78
2021/04/24 10:10:35;;;;;;;8.30;2.40;;;;;;;;;;4991928;28;20080;-78
2021/04/24 10:13:09;;;;;;;8.77;2.65;;;;;;;;;;5001075;28;20597;-78
2021/04/24 10:15:47;;;;;;;9.90;4.20;;;;;;;;;;5006903;28;20022;-75
2021/04/24 10:18:19;;;;;;;7.35;2.85;;;;;;;;;;5003043;28;20137;-76
2021/04/24 10:20:50;;;;;;;6.40;2.25;;;;;;;;;;4979553;28;20113;-77
2021/04/24 10:23:17;;;;;;;7.57;2.83;;;;;;;;;;5006762;28;20021;-78
2021/04/24 10:25:45;;;;;;;6.22;2.15;;;;;;;;;;5001761;28;20083;-76
2021/04/24 10:28:14;;;;;;;8.18;2.35;;;;;;;;;;5006875;28;20985;-78
2021/04/24 10:30:43;;;;;;;6.70;2.20;;;;;;;;;;4998890;28;20168;-78
2021/04/24 10:33:11;;;;;;;7.30;2.20;;;;;;;;;;5012889;28;20029;-78
2021/04/24 10:35:40;;;;;;;6.65;2.30;;;;;;;;;;5004658;28;22234;-77
2021/04/24 10:38:08;;;;;;;6.80;2.35;;;;;;;;;;5002444;28;20056;-78
2021/04/24 10:40:46;;;;;;;8.52;2.30;;;;;;;;;;5000664;28;20429;-77
2021/04/24 10:43:21;;;;;;;8.45;2.83;;;;;;;;;;5003726;28;20040;-77
2021/04/24 10:45:50;;;;;;;9.37;3.00;;;;;;;;;;5006118;28;20144;-77
2021/04/24 10:48:36;;;;;;;7.97;2.78;;;;;;;;;;5011900;28;20282;-78
2021/04/24 10:51:06;;;;;;;6.20;2.20;;;;;;;;;;5006724;28;20112;-78
2021/04/24 10:53:34;;;;;;;7.13;2.65;;;;;;;;;;5011581;28;20033;-81
2021/04/24 10:56:12;;;;;;;8.38;2.38;;;;;;;;;;5011339;28;20021;-81
2021/04/24 10:58:40;;;;;;;12.48;2.15;;;;;;;;;;4984094;28;21420;-77
2021/04/24 11:01:08;;;;;;;6.88;2.10;;;;;;;;;;5004571;28;20036;-78
2021/04/24 11:03:52;;;;;;;8.40;1.98;;;;;;;;;;5005708;28;20494;-79
2021/04/24 11:06:24;;;;;;;4.95;1.70;;;;;;;;;;4995804;28;20119;-77
2021/04/24 11:09:11;;;;;;;8.00;2.50;;;;;;;;;;5000860;28;20017;-78
2021/04/24 11:11:42;;;;;;;5.78;2.10;;;;;;;;;;5000141;28;20051;-78
2021/04/24 11:14:11;;;;;;;7.10;2.15;;;;;;;;;;5031717;28;20024;-77
2021/04/24 11:16:43;;;;;;;6.35;1.85;;;;;;;;;;5007144;28;21196;-83
2021/04/24 11:19:12;;;;;;;5.63;1.80;;;;;;;;;;5006122;28;20152;-83
2021/04/24 11:21:39;;;;;;;5.30;1.65;;;;;;;;;;5008051;28;20386;-82
2021/04/24 11:24:17;;;;;;;8.93;2.10;;;;;;;;;;4993036;28;20041;-80
2021/04/24 11:26:47;;;;;;;7.70;2.42;;;;;;;;;;4982037;28;20068;-80
2021/04/24 11:29:21;;;;;;;6.38;2.03;;;;;;;;;;4984902;28;20230;-80
2021/04/24 11:32:05;;;;;;;7.20;2.20;;;;;;;;;;4953965;28;20503;-80
2021/04/24 11:34:37;;;;;;;7.55;2.00;;;;;;;;;;4991959;28;20137;-80
2021/04/24 11:37:27;;;;;;;7.18;1.85;;;;;;;;;;4996057;28;20033;-81
2021/04/24 11:40:16;;;;;;;6.32;1.70;;;;;;;;;;4988998;28;20038;-82
2021/04/24 11:43:13;;;;;;;6.50;2.10;;;;;;;;;;4994937;28;20053;-80
2021/04/24 11:46:01;;;;;;;6.55;1.80;;;;;;;;;;4994342;28;20123;-80
2021/04/24 11:49:05;;;;;;;5.90;2.00;;;;;;;;;;4988387;28;20041;-80
2021/04/24 11:51:43;;;;;;;6.93;2.08;;;;;;;;;;4967141;28;20589;-78
2021/04/24 11:54:29;;;;;;;10.25;2.10;;;;;;;;;;4974870;28;20161;-78
2021/04/24 11:56:58;;;;;;;7.70;2.17;;;;;;;;;;5005139;28;20061;-79
2021/04/24 11:59:30;;;;;;;7.07;2.45;;;;;;;;;;5005750;28;20124;-77
2021/04/24 12:01:59;;;;;;;8.60;2.53;;;;;;;;;;5004545;28;20477;-78
2021/04/24 12:04:37;;;;;;;6.93;2.20;;;;;;;;;;4998785;28;20119;-78
2021/04/24 12:07:18;;;;;;;6.78;2.15;;;;;;;;;;5002661;28;20446;-76
2021/04/24 12:09:50;;;;;;;6.60;2.03;;;;;;;;;;4987120;28;20049;-78
2021/04/24 12:12:19;;;;;;;7.90;2.10;;;;;;;;;;5010364;28;20026;-81
2021/04/24 12:14:49;;;;;;;5.60;1.80;;;;;;;;;;5016172;28;20033;-81
2021/04/24 12:17:27;;;;;;;6.03;2.08;;;;;;;;;;5032252;28;20050;-81
2021/04/24 12:19:57;;;;;;;5.43;1.73;;;;;;;;;;5018779;28;20516;-82
2021/04/24 12:22:26;;;;;;;7.82;2.20;;;;;;;;;;5026526;28;20017;-83
2021/04/24 12:25:08;;;;;;;8.00;2.08;;;;;;;;;;5023389;28;20052;-83
2021/04/24 12:27:37;;;;;;;6.15;2.05;;;;;;;;;;5004639;28;20041;-81
2021/04/24 12:30:08;;;;;;;6.32;2.08;;;;;;;;;;4995301;28;20029;-81
2021/04/24 12:32:41;;;;;;;7.32;2.22;;;;;;;;;;4995693;28;20037;-83
2021/04/24 12:35:10;;;;;;;7.50;2.42;;;;;;;;;;4999944;28;20584;-83
2021/04/24 12:37:39;;;;;;;5.85;1.90;;;;;;;;;;4991752;28;20650;-80
2021/04/24 12:40:13;;;;;;;7.95;2.40;;;;;;;;;;5006158;28;20036;-83
2021/04/24 12:42:41;;;;;;;7.15;2.20;;;;;;;;;;5003855;28;20030;-81
2021/04/24 12:45:15;;;;;;;6.05;1.88;;;;;;;;;;5010770;28;20036;-80
2021/04/24 12:47:45;;;;;;;6.93;2.20;;;;;;;;;;5003817;28;20045;-80
2021/04/24 12:50:19;;;;;;;6.78;2.13;;;;;;;;;;4993846;28;20041;-81
2021/04/24 12:52:53;;;;;;;8.30;2.50;;;;;;;;;;5005667;28;20152;-81
2021/04/24 12:55:19;;;;;;;7.13;2.40;;;;;;;;;;4993304;28;20881;-81
2021/04/24 12:57:51;;;;;;;6.53;2.30;;;;;;;;;;5022327;28;20029;-81
2021/04/24 13:00:20;;;;;;;6.13;2.03;;;;;;;;;;5013626;28;20028;-80
2021/04/24 13:02:49;;;;;;;7.72;2.97;;;;;;;;;;5011831;28;20022;-76
2021/04/24 13:05:17;;;;;;;6.45;2.60;;;;;;;;;;5008855;28;20025;-78
2021/04/24 13:07:43;;;;;;;6.38;2.40;;;;;;;;;;4995953;28;21042;-78
2021/04/24 13:10:17;;;;;;;5.80;1.85;;;;;;;;;;4998251;28;20045;-79
2021/04/24 13:12:53;;;;;;;4.53;1.55;;;;;;;;;;4981068;28;20053;-78
2021/04/24 13:15:21;;;;;;;6.70;1.95;;;;;;;;;;4980985;28;20052;-83
2021/04/24 13:17:48;;;;;;;7.32;1.88;;;;;;;;;;4991278;28;20038;-87
2021/04/24 13:20:36;;;;;;;6.75;1.80;;;;;;;;;;4994090;28;20491;-86
2021/04/24 13:23:16;;;;;;;6.25;1.90;;;;;;;;;;4973600;28;20775;-87
2021/04/24 13:25:43;;;;;;;5.82;1.58;;;;;;;;;;4971519;28;20502;-87
2021/04/24 13:28:11;;;;;;;6.60;1.77;;;;;;;;;;4973577;28;20030;-86
2021/04/24 13:30:44;;;;;;;5.53;1.55;;;;;;;;;;4989657;28;21022;-87
2021/04/24 13:33:12;;;;;;;5.60;1.63;;;;;;;;;;4975092;28;20146;-87
2021/04/24 13:35:55;;;;;;;6.47;1.90;;;;;;;;;;4988014;28;20492;-86
2021/04/24 13:38:23;;;;;;;6.95;2.10;;;;;;;;;;4973070;28;20069;-86
2021/04/24 13:40:50;;;;;;;4.50;1.40;;;;;;;;;;4986700;28;20089;-86
2021/04/24 13:43:32;;;;;;;5.78;1.75;;;;;;;;;;4992397;28;20156;-86
2021/04/24 13:46:18;;;;;;;5.05;1.55;;;;;;;;;;4993062;28;20033;-85
2021/04/24 13:48:46;;;;;;;;;;;;;;;;;;4974126;28;20115;-85
2021/04/24 13:51:14;;;;;;;6.20;1.80;;;;;;;;;;5009398;28;19988;-86
2021/04/24 13:53:42;;;;;;;7.25;2.00;;;;;;;;;;4991544;28;20026;-85
2021/04/24 13:56:12;;;;;;;8.25;2.00;;;;;;;;;;4961257;28;20033;-85
2021/04/24 13:58:40;;;;;;;7.40;1.65;;;;;;;;;;5007021;28;20110;-86
2021/04/24 14:01:08;;;;;;;5.70;1.58;;;;;;;;;;5014671;28;20127;-87
2021/04/24 14:03:37;;;;;;;7.60;1.70;;;;;;;;;;5008343;28;20037;-87
2021/04/24 14:06:04;;;;;;;6.18;1.85;;;;;;;;;;4990759;28;20042;-83
2021/04/24 14:08:32;;;;;;;7.18;1.80;;;;;;;;;;4986338;28;20046;-84
2021/04/24 14:11:02;;;;;;;6.03;2.00;;;;;;;;;;4992459;28;20813;-84
2021/04/24 14:13:30;;;;;;;5.60;1.70;;;;;;;;;;4975154;28;20041;-83
2021/04/24 14:15:58;;;;;;;6.25;1.55;;;;;;;;;;4974208;28;20035;-86
2021/04/24 14:18:29;;;;;;;5.95;1.80;;;;;;;;;;4969321;28;20129;-85
2021/04/24 14:20:55;;;;;;;5.85;1.95;;;;;;;;;;4959391;28;20061;-85
2021/04/24 14:23:25;;;;;;;6.13;1.63;;;;;;;;;;4954463;28;20034;-86
2021/04/24 14:25:51;;;;;;;7.55;1.65;;;;;;;;;;4974007;28;20049;-86
2021/04/24 14:28:20;;;;;;;8.70;1.55;;;;;;;;;;4975481;28;20066;-82
2021/04/24 14:30:47;;;;;;;8.40;1.67;;;;;;;;;;4979156;28;20067;-85
2021/04/24 14:33:18;;;;;;;6.88;1.65;;;;;;;;;;4976430;28;20162;-84
2021/04/24 14:35:46;;;;;;;7.50;1.67;;;;;;;;;;4973630;28;20030;-85
2021/04/24 14:38:13;;;;;;;5.55;1.33;;;;;;;;;;4971590;28;20031;-81
2021/04/24 14:40:40;;;;;;;7.30;1.95;;;;;;;;;;4952079;28;20043;-82
2021/04/24 14:43:32;;;;;;;6.25;1.60;;;;;;;;;;4956732;28;20039;-82
2021/04/24 14:46:01;;;;;;;6.18;1.85;;;;;;;;;;4951852;28;20039;-85
2021/04/24 14:48:31;;;;;;;6.10;1.50;;;;;;;;;;4932755;28;20105;-81
2021/04/24 14:50:59;;;;;;;7.20;1.60;;;;;;;;;;4958446;28;20110;-82
2021/04/24 14:53:28;;;;;;;6.15;2.10;;;;;;;;;;4945081;28;20076;-80
2021/04/24 14:55:58;;;;;;;7.65;1.98;;;;;;;;;;4951604;28;20062;-80
2021/04/24 14:58:25;;;;;;;5.60;1.60;;;;;;;;;;4978902;28;20097;-81
2021/04/24 15:00:53;;;;;;;5.60;1.45;;;;;;;;;;4990587;28;20034;-83